Time;durP1;ratioP1;P1;durP2;ratioP2;P2;SDS_P1;SDS_P2;PMS_P1;PMS_P2;Temp;Humidity;BMP_temperature;BMP_pressure;BME280_temperature;BME280_humidity;BME280_pressure;Samples;Min_cycle;Max_cycle;Signal;HPM_P1;HPM_P2
2021/06/02 00:01:47;;;;;;;5.43;3.97;;;15.20;62.30;;;;;;5034612;28;20446;-77
2021/06/02 00:04:15;;;;;;;8.20;4.57;;;15.20;62.60;;;;;;5046686;28;20424;-76
2021/06/02 00:06:43;;;;;;;6.30;4.20;;;15.20;62.80;;;;;;5050172;28;20528;-76
2021/06/02 00:09:09;;;;;;;8.90;4.53;;;15.10;64.10;;;;;;5034963;28;20489;-76
2021/06/02 00:11:38;;;;;;;5.27;4.30;;;15.10;64.50;;;;;;5042337;28;20490;-76
2021/06/02 00:14:04;;;;;;;6.23;4.17;;;15.00;64.40;;;;;;5054444;28;20922;-76
2021/06/02 00:16:30;;;;;;;5.17;4.10;;;14.90;64.80;;;;;;5048233;28;20444;-77
2021/06/02 00:18:58;;;;;;;5.53;3.90;;;14.90;65.10;;;;;;5046563;28;20932;-75
2021/06/02 00:21:24;;;;;;;4.50;3.57;;;14.90;64.80;;;;;;5024471;28;20476;-76
2021/06/02 00:23:49;;;;;;;7.17;3.90;;;14.80;63.80;;;;;;5051204;28;20464;-76
2021/06/02 00:26:16;;;;;;;10.00;4.33;;;14.80;63.10;;;;;;5044387;28;20200;-76
2021/06/02 00:28:42;;;;;;;3.87;3.27;;;14.80;63.50;;;;;;5029032;28;20288;-76
2021/06/02 00:31:10;;;;;;;5.90;3.30;;;14.70;63.80;;;;;;5036332;28;20473;-75
2021/06/02 00:33:36;;;;;;;5.87;3.40;;;14.70;63.90;;;;;;5037485;28;20886;-76
2021/06/02 00:36:03;;;;;;;4.47;3.67;;;14.70;64.40;;;;;;5037623;28;20423;-75
2021/06/02 00:38:29;;;;;;;4.40;3.33;;;14.70;64.20;;;;;;5035764;28;20486;-76
2021/06/02 00:40:55;;;;;;;4.37;3.37;;;14.70;64.20;;;;;;5031043;28;20455;-76
2021/06/02 00:43:20;;;;;;;6.53;4.07;;;14.70;64.20;;;;;;5044621;28;20507;-76
2021/06/02 00:45:47;;;;;;;7.03;3.70;;;14.70;65.40;;;;;;5043766;28;20421;-76
2021/06/02 00:48:17;;;;;;;5.90;3.93;;;14.60;66.70;;;;;;5031154;28;20205;-75
2021/06/02 00:50:48;;;;;;;8.07;4.97;;;14.60;66.90;;;;;;5043466;28;20555;-76
2021/06/02 00:53:14;;;;;;;8.80;4.87;;;14.50;68.00;;;;;;5048021;28;20423;-75
2021/06/02 00:55:41;;;;;;;7.50;4.50;;;14.50;68.20;;;;;;5044495;28;20968;-74
2021/06/02 00:58:24;;;;;;;6.63;4.40;;;14.50;68.00;;;;;;5034683;28;20444;-75
2021/06/02 01:00:50;;;;;;;6.17;4.40;;;14.40;68.60;;;;;;5043651;28;20471;-76
2021/06/02 01:03:21;;;;;;;6.10;4.43;;;14.30;69.40;;;;;;5050505;28;20427;-75
2021/06/02 01:05:48;;;;;;;4.73;3.67;;;14.30;68.80;;;;;;5036574;28;20432;-76
2021/06/02 01:08:15;;;;;;;4.73;3.47;;;14.30;67.20;;;;;;5048451;28;20846;-76
2021/06/02 01:10:45;;;;;;;5.50;3.70;;;14.30;66.70;;;;;;5037019;28;20416;-76
2021/06/02 01:13:13;;;;;;;8.63;3.23;;;14.20;66.10;;;;;;5036904;28;20444;-77
2021/06/02 01:15:39;;;;;;;6.17;4.17;;;14.20;65.80;;;;;;5035085;28;20434;-77
2021/06/02 01:18:08;;;;;;;5.53;4.40;;;14.10;65.80;;;;;;5050188;28;20526;-76
2021/06/02 01:20:38;;;;;;;6.30;3.47;;;14.00;66.70;;;;;;5024074;28;20436;-76
2021/06/02 01:23:05;;;;;;;5.03;3.70;;;14.00;66.60;;;;;;5017116;28;20429;-76
2021/06/02 01:25:33;;;;;;;5.83;3.50;;;14.00;66.90;;;;;;5043612;28;20831;-75
2021/06/02 01:27:59;;;;;;;5.70;3.30;;;14.00;66.70;;;;;;5039639;28;20460;-75
2021/06/02 01:30:25;;;;;;;4.67;3.33;;;14.10;66.10;;;;;;5030220;28;20421;-75
2021/06/02 01:32:54;;;;;;;5.53;3.50;;;14.00;65.70;;;;;;5029446;28;20204;-75
2021/06/02 01:35:41;;;;;;;4.00;2.80;;;14.00;65.30;;;;;;5028632;28;20193;-78
2021/06/02 01:38:28;;;;;;;4.03;3.27;;;14.00;65.60;;;;;;5040977;28;20960;-77
2021/06/02 01:41:32;;;;;;;6.20;3.80;;;14.00;65.70;;;;;;5050039;28;20907;-77
2021/06/02 01:44:19;;;;;;;4.90;3.03;;;14.00;65.80;;;;;;5029725;28;20880;-76
2021/06/02 01:47:01;;;;;;;4.90;3.43;;;13.90;66.10;;;;;;5029851;28;20443;-76
2021/06/02 01:49:51;;;;;;;6.17;3.70;;;13.80;66.60;;;;;;5039174;28;20477;-75
2021/06/02 01:52:23;;;;;;;4.40;2.83;;;13.70;66.90;;;;;;5043276;28;20412;-76
2021/06/02 01:55:03;;;;;;;5.50;3.40;;;13.70;67.20;;;;;;5043843;28;20430;-78
2021/06/02 01:57:29;;;;;;;8.40;4.07;;;13.60;67.30;;;;;;5049748;28;20893;-75
2021/06/02 02:00:36;;;;;;;5.07;3.10;;;13.60;67.30;;;;;;5049749;28;20432;-76
2021/06/02 02:03:39;;;;;;;6.10;3.93;;;13.50;67.60;;;;;;5035858;28;20283;-76
2021/06/02 02:06:39;;;;;;;6.47;3.13;;;13.50;69.40;;;;;;5035895;28;20420;-76
2021/06/02 02:09:34;;;;;;;6.10;4.60;;;13.40;68.60;;;;;;5037179;28;20513;-77
2021/06/02 02:12:30;;;;;;;6.87;4.47;;;13.40;71.40;;;;;;5019304;28;20458;-76
2021/06/02 02:15:14;;;;;;;5.53;3.70;;;13.30;72.40;;;;;;5016949;28;20416;-76
2021/06/02 02:17:57;;;;;;;5.20;4.10;;;13.10;72.40;;;;;;5042657;28;20431;-75
2021/06/02 02:20:36;;;;;;;8.57;4.20;;;13.00;72.00;;;;;;5019429;28;20416;-75
2021/06/02 02:23:19;;;;;;;4.43;3.20;;;13.00;71.60;;;;;;5046902;28;20431;-75
2021/06/02 02:26:16;;;;;;;10.37;3.57;;;13.00;71.30;;;;;;5046173;28;20415;-76
2021/06/02 02:28:45;;;;;;;8.90;5.23;;;13.00;71.40;;;;;;5031479;28;20462;-75
2021/06/02 02:31:47;;;;;;;7.57;4.53;;;13.10;73.00;;;;;;5046116;28;20872;-76
2021/06/02 02:34:19;;;;;;;4.60;3.60;;;13.00;73.50;;;;;;5050284;28;21289;-75
2021/06/02 02:36:50;;;;;;;9.90;5.17;;;12.90;73.30;;;;;;5039728;28;20432;-75
2021/06/02 02:39:37;;;;;;;5.87;4.50;;;13.00;73.60;;;;;;5019992;28;20929;-76
2021/06/02 02:42:27;;;;;;;7.47;5.07;;;13.00;74.60;;;;;;5046481;28;20419;-76
2021/06/02 02:45:09;;;;;;;8.17;5.33;;;13.00;74.80;;;;;;5046350;28;20988;-75
2021/06/02 02:48:08;;;;;;;8.00;5.10;;;12.90;75.40;;;;;;5055295;28;20446;-75
2021/06/02 02:50:44;;;;;;;10.47;5.53;;;12.70;76.40;;;;;;5039539;28;20522;-76
2021/06/02 02:53:28;;;;;;;8.53;5.30;;;12.60;76.80;;;;;;5050515;28;20754;-77
2021/06/02 02:55:59;;;;;;;7.73;4.13;;;12.50;77.10;;;;;;5046701;28;20427;-77
2021/06/02 02:58:56;;;;;;;6.60;3.70;;;12.50;77.30;;;;;;5048751;28;20806;-77
2021/06/02 03:01:27;;;;;;;10.00;4.40;;;12.50;76.80;;;;;;5046147;28;20419;-76
2021/06/02 03:03:59;;;;;;;6.00;3.67;;;12.50;75.50;;;;;;5042188;28;20837;-77
2021/06/02 03:06:32;;;;;;;6.77;3.97;;;12.50;74.90;;;;;;5038765;28;20435;-76
2021/06/02 03:09:10;;;;;;;7.23;4.47;;;12.40;74.80;;;;;;5040564;28;20549;-76
2021/06/02 03:11:42;;;;;;;8.37;5.40;;;12.50;75.50;;;;;;5045974;28;20420;-75
2021/06/02 03:14:24;;;;;;;8.87;4.90;;;12.50;76.70;;;;;;5044832;28;20782;-76
2021/06/02 03:17:25;;;;;;;5.77;4.30;;;12.50;76.80;;;;;;5041633;28;21149;-76
2021/06/02 03:22:48;;;;;;;8.80;5.70;;;12.30;77.40;;;;;;5300038;22;20502;-76
2021/06/02 03:25:26;;;;;;;7.37;5.07;;;12.30;77.80;;;;;;5048434;28;20431;-75
2021/06/02 03:28:07;;;;;;;7.07;4.30;;;12.30;78.40;;;;;;5051380;28;20528;-76
2021/06/02 03:30:37;;;;;;;6.63;3.97;;;12.30;78.30;;;;;;5041867;28;20419;-76
2021/06/02 03:33:40;;;;;;;6.83;4.17;;;12.10;77.60;;;;;;5029265;28;20412;-75
2021/06/02 03:36:24;;;;;;;8.73;5.40;;;12.10;76.80;;;;;;5001366;28;20506;-76
2021/06/02 03:39:03;;;;;;;5.37;3.90;;;12.10;78.30;;;;;;5034169;28;20445;-75
2021/06/02 03:42:07;;;;;;;5.67;3.43;;;12.20;78.00;;;;;;5030572;28;20439;-76
2021/06/02 03:44:43;;;;;;;5.97;3.90;;;12.20;75.90;;;;;;5027504;28;20427;-75
2021/06/02 03:47:29;;;;;;;7.57;3.80;;;12.20;74.90;;;;;;5024154;28;20419;-76
2021/06/02 03:50:00;;;;;;;4.20;3.90;;;12.20;74.80;;;;;;5032200;28;20475;-76
2021/06/02 03:52:45;;;;;;;6.97;3.90;;;12.20;75.10;;;;;;5030703;28;20447;-75
2021/06/02 03:55:20;;;;;;;5.63;3.80;;;12.30;75.10;;;;;;5032293;28;21223;-75
2021/06/02 03:58:09;;;;;;;4.30;3.50;;;12.30;74.90;;;;;;5030555;28;20503;-76
2021/06/02 04:00:43;;;;;;;5.43;3.63;;;12.30;74.80;;;;;;5031960;28;20420;-75
2021/06/02 04:03:21;;;;;;;5.63;3.30;;;12.30;74.80;;;;;;5031616;28;20435;-76
2021/06/02 04:05:58;;;;;;;5.33;3.63;;;12.40;74.60;;;;;;5031835;28;20423;-76
2021/06/02 04:08:45;;;;;;;7.70;4.00;;;12.40;74.30;;;;;;5032167;28;20462;-76
2021/06/02 04:11:44;;;;;;;4.47;3.37;;;12.40;74.30;;;;;;5031157;28;20447;-75
2021/06/02 04:14:15;;;;;;;6.13;4.70;;;12.40;74.50;;;;;;5032086;28;20412;-76
2021/06/02 04:16:41;;;;;;;9.90;5.37;;;12.40;75.20;;;;;;5030527;28;20420;-75
2021/06/02 04:19:14;;;;;;;8.87;4.50;;;12.40;77.00;;;;;;5031880;28;20457;-76
2021/06/02 04:21:44;;;;;;;7.00;5.20;;;12.30;77.70;;;;;;5030699;28;20470;-76
2021/06/02 04:24:17;;;;;;;10.77;4.93;;;12.20;78.10;;;;;;5032103;28;20517;-76
2021/06/02 04:26:44;;;;;;;7.70;5.30;;;12.20;78.30;;;;;;5031691;28;20427;-76
2021/06/02 04:29:15;;;;;;;6.57;4.83;;;12.30;77.80;;;;;;5031722;28;20482;-75
2021/06/02 04:31:55;;;;;;;7.67;4.70;;;12.30;78.00;;;;;;5030381;28;20456;-77
2021/06/02 04:34:27;;;;;;;9.53;5.57;;;12.50;77.10;;;;;;5031851;28;20856;-76
2021/06/02 04:37:00;;;;;;;12.50;5.10;;;12.40;76.50;;;;;;5031610;28;20435;-76
2021/06/02 04:39:28;;;;;;;9.43;5.83;;;12.30;77.30;;;;;;5032044;28;20415;-76
2021/06/02 04:41:56;;;;;;;9.37;5.23;;;12.30;77.60;;;;;;5030896;28;20450;-75
2021/06/02 04:44:24;;;;;;;10.60;5.20;;;12.20;77.80;;;;;;5030812;28;20428;-77
2021/06/02 04:46:50;;;;;;;13.63;5.17;;;12.30;77.60;;;;;;5034805;28;20523;-75
2021/06/02 04:49:16;;;;;;;9.63;4.80;;;12.40;77.30;;;;;;5033129;28;20995;-72
2021/06/02 04:51:42;;;;;;;7.27;4.87;;;12.40;76.50;;;;;;5030825;28;20474;-73
2021/06/02 04:54:35;;;;;;;6.47;4.77;;;12.60;75.70;;;;;;5033555;28;20892;-73
2021/06/02 04:57:36;;;;;;;7.20;4.80;;;12.60;76.10;;;;;;5035680;28;20199;-74
2021/06/02 05:00:11;;;;;;;6.17;4.23;;;12.70;74.80;;;;;;5033105;28;20470;-73
2021/06/02 05:03:16;;;;;;;6.90;4.53;;;12.80;74.50;;;;;;5037749;28;20614;-75
2021/06/02 05:06:20;;;;;;;9.27;5.67;;;12.90;75.10;;;;;;5034797;28;20430;-73
2021/06/02 05:09:05;;;;;;;8.10;4.87;;;13.00;74.30;;;;;;5037944;28;20463;-74
2021/06/02 05:11:52;;;;;;;9.80;4.97;;;13.20;73.60;;;;;;5039089;28;20506;-74
2021/06/02 05:14:55;;;;;;;12.10;5.77;;;13.30;73.30;;;;;;5040036;28;20988;-74
2021/06/02 05:18:03;;;;;;;8.20;4.97;;;13.40;72.10;;;;;;5026935;28;21098;-75
2021/06/02 05:23:34;;;;;;;8.20;5.37;;;13.50;71.80;;;;;;5031766;28;20450;-76
2021/06/02 05:26:32;;;;;;;9.93;5.60;;;13.50;71.70;;;;;;5023939;28;20419;-75
2021/06/02 05:29:44;;;;;;;7.17;4.90;;;13.60;71.40;;;;;;5032100;28;20989;-75
2021/06/02 05:32:16;;;;;;;7.37;4.93;;;13.70;70.80;;;;;;5024205;28;20436;-76
2021/06/02 05:35:33;;;;;;;6.50;5.00;;;13.80;70.40;;;;;;5029968;28;20428;-75
2021/06/02 05:38:27;;;;;;;7.53;5.13;;;14.00;69.20;;;;;;5031893;28;20519;-76
2021/06/02 05:41:25;;;;;;;10.43;5.00;;;14.10;68.50;;;;;;5040304;28;20449;-77
2021/06/02 05:43:59;;;;;;;8.13;5.20;;;14.20;68.20;;;;;;5043276;28;20511;-77
2021/06/02 05:47:07;;;;;;;9.37;5.37;;;14.30;67.20;;;;;;5033154;28;20423;-76
2021/06/02 05:49:42;;;;;;;7.60;4.63;;;14.40;67.00;;;;;;5031272;28;20468;-75
2021/06/02 05:52:38;;;;;;;10.70;4.30;;;14.60;66.60;;;;;;5030805;28;20788;-75
2021/06/02 05:55:21;;;;;;;10.77;5.40;;;14.70;66.40;;;;;;5024286;28;20461;-76
2021/06/02 05:58:11;;;;;;;11.10;5.50;;;14.70;65.30;;;;;;5037689;28;20960;-75
2021/06/02 06:00:56;;;;;;;8.60;5.47;;;14.90;65.10;;;;;;5037020;28;21005;-75
2021/06/02 06:03:37;;;;;;;12.93;5.30;;;15.00;64.80;;;;;;5033321;28;20417;-76
2021/06/02 06:06:08;;;;;;;8.53;4.50;;;15.10;64.70;;;;;;5038574;28;20415;-77
2021/06/02 06:09:11;;;;;;;12.03;5.47;;;15.30;64.50;;;;;;5038134;28;20533;-76
2021/06/02 06:11:43;;;;;;;6.90;4.70;;;15.30;64.10;;;;;;5035024;28;20439;-74
2021/06/02 06:14:19;;;;;;;6.80;4.90;;;15.40;63.20;;;;;;5039767;28;20846;-75
2021/06/02 06:17:12;;;;;;;8.40;4.70;;;15.50;63.40;;;;;;5049412;28;20423;-74
2021/06/02 06:19:57;;;;;;;8.73;5.37;;;15.70;62.90;;;;;;5042703;28;20431;-76
2021/06/02 06:23:01;;;;;;;7.33;4.47;;;15.90;61.90;;;;;;5032562;28;20962;-77
2021/06/02 06:25:56;;;;;;;9.60;5.10;;;15.90;61.60;;;;;;5031076;28;20850;-77
2021/06/02 06:28:42;;;;;;;9.43;5.07;;;16.00;61.70;;;;;;5022086;28;20563;-76
2021/06/02 06:31:31;;;;;;;13.83;6.13;;;16.10;61.20;;;;;;5030845;28;20450;-76
2021/06/02 06:33:58;;;;;;;14.83;7.27;;;16.20;61.30;;;;;;5037566;28;20419;-75
2021/06/02 06:36:25;;;;;;;15.70;7.67;;;16.30;62.30;;;;;;5037957;28;20476;-76
2021/06/02 06:39:04;;;;;;;13.23;6.30;;;16.30;62.50;;;;;;5038289;28;20458;-77
2021/06/02 06:41:33;;;;;;;11.87;7.20;;;16.30;61.30;;;;;;5035184;28;20455;-76
2021/06/02 06:44:01;;;;;;;14.40;6.20;;;16.40;61.90;;;;;;5038503;28;20438;-77
2021/06/02 06:46:28;;;;;;;18.50;7.40;;;16.50;61.90;;;;;;5036784;28;20449;-77
2021/06/02 06:48:58;;;;;;;12.57;6.50;;;16.50;61.00;;;;;;5037923;28;20464;-77
2021/06/02 06:51:28;;;;;;;9.70;6.40;;;16.60;60.90;;;;;;5036992;28;20531;-76
2021/06/02 06:53:56;;;;;;;11.17;6.30;;;16.80;60.40;;;;;;5037931;28;20465;-76
2021/06/02 06:56:23;;;;;;;11.77;6.10;;;17.00;59.60;;;;;;5038734;28;20467;-77
2021/06/02 06:58:49;;;;;;;13.77;5.57;;;17.10;59.30;;;;;;5037969;28;20434;-76
2021/06/02 07:01:16;;;;;;;9.80;5.50;;;17.20;58.40;;;;;;5034843;28;20454;-77
2021/06/02 07:03:43;;;;;;;15.60;6.23;;;17.30;58.40;;;;;;5036569;28;20436;-76
2021/06/02 07:06:14;;;;;;;10.40;5.90;;;17.40;57.70;;;;;;5043462;28;20457;-75
2021/06/02 07:08:46;;;;;;;9.47;5.97;;;17.50;57.80;;;;;;5036571;28;20459;-75
2021/06/02 07:11:17;;;;;;;11.17;5.70;;;17.60;57.80;;;;;;5025512;28;20487;-76
2021/06/02 07:13:44;;;;;;;9.17;5.30;;;17.60;58.10;;;;;;5033315;28;20902;-77
2021/06/02 07:16:11;;;;;;;10.57;5.40;;;17.80;58.00;;;;;;5032207;28;20607;-76
2021/06/02 07:18:41;;;;;;;9.00;6.07;;;17.80;57.70;;;;;;5033866;28;20483;-76
2021/06/02 07:21:07;;;;;;;11.13;5.70;;;17.80;57.80;;;;;;5030803;28;20470;-76
2021/06/02 07:23:33;;;;;;;8.47;6.20;;;18.00;57.60;;;;;;5033315;28;20944;-75
2021/06/02 07:25:59;;;;;;;10.30;6.00;;;18.10;57.60;;;;;;5033815;28;20421;-75
2021/06/02 07:28:39;;;;;;;11.00;5.80;;;18.10;57.30;;;;;;5033778;28;20703;-76
2021/06/02 07:31:07;;;;;;;11.33;5.33;;;18.10;57.60;;;;;;5030826;28;20453;-76
2021/06/02 07:33:33;;;;;;;11.43;4.87;;;18.30;57.30;;;;;;5033766;28;20424;-76
2021/06/02 07:35:59;;;;;;;11.30;5.90;;;18.30;56.90;;;;;;5033539;28;20465;-77
2021/06/02 07:38:25;;;;;;;9.13;5.50;;;18.40;56.50;;;;;;5033305;28;20887;-77
2021/06/02 07:40:51;;;;;;;7.73;5.70;;;18.40;56.40;;;;;;5031742;28;20281;-77
2021/06/02 07:43:17;;;;;;;7.07;5.37;;;18.50;56.10;;;;;;5031697;28;20442;-77
2021/06/02 07:45:44;;;;;;;8.90;4.90;;;18.70;55.60;;;;;;5032323;28;20429;-77
2021/06/02 07:48:10;;;;;;;7.43;5.23;;;18.80;55.30;;;;;;5031132;28;20985;-75
2021/06/02 07:50:36;;;;;;;9.13;5.70;;;18.90;55.30;;;;;;5031846;28;20423;-75
2021/06/02 07:53:03;;;;;;;8.40;4.53;;;18.80;55.60;;;;;;5031165;28;20521;-76
2021/06/02 07:55:28;;;;;;;7.30;4.60;;;18.90;54.60;;;;;;5033047;28;20549;-77
2021/06/02 07:57:54;;;;;;;9.57;5.40;;;19.10;53.70;;;;;;5032142;28;20871;-76
2021/06/02 08:00:20;;;;;;;11.10;5.03;;;19.00;54.20;;;;;;5032684;28;20192;-76
2021/06/02 08:02:46;;;;;;;10.00;5.17;;;19.00;53.70;;;;;;5031587;28;20216;-75
2021/06/02 08:05:14;;;;;;;7.50;4.90;;;19.00;53.60;;;;;;5032352;28;20422;-77
2021/06/02 08:07:42;;;;;;;9.27;4.83;;;19.10;53.20;;;;;;5031902;28;20189;-76
2021/06/02 08:10:08;;;;;;;12.90;5.93;;;19.20;53.00;;;;;;5030681;28;20462;-76
2021/06/02 08:12:34;;;;;;;13.23;5.10;;;19.20;52.50;;;;;;5031172;28;20443;-77
2021/06/02 08:15:00;;;;;;;12.23;5.17;;;19.30;51.80;;;;;;5032124;28;20431;-77
2021/06/02 08:17:26;;;;;;;8.47;4.60;;;19.40;52.10;;;;;;5031637;28;20752;-77
2021/06/02 08:19:52;;;;;;;12.70;5.23;;;19.50;51.70;;;;;;5032743;28;20256;-75
2021/06/02 08:22:17;;;;;;;12.40;5.30;;;19.70;51.40;;;;;;5031612;28;20228;-77
2021/06/02 08:24:43;;;;;;;12.43;5.27;;;19.70;50.50;;;;;;5030769;28;20670;-76
2021/06/02 08:27:13;;;;;;;10.17;5.50;;;19.70;50.20;;;;;;5032753;28;20192;-76
2021/06/02 08:29:39;;;;;;;7.63;4.70;;;19.90;49.90;;;;;;5032546;28;20222;-76
2021/06/02 08:32:06;;;;;;;10.07;4.30;;;20.10;49.00;;;;;;5029710;28;20456;-75
2021/06/02 08:34:32;;;;;;;10.83;5.63;;;20.20;48.60;;;;;;5031222;28;20425;-76
2021/06/02 08:36:57;;;;;;;5.83;3.97;;;20.50;47.00;;;;;;5030680;28;20992;-77
2021/06/02 08:39:24;;;;;;;12.17;4.20;;;20.60;46.20;;;;;;5032736;28;20421;-76
2021/06/02 08:41:51;;;;;;;5.70;3.97;;;20.70;46.20;;;;;;5032071;28;20298;-76
2021/06/02 08:44:19;;;;;;;7.40;4.70;;;20.80;45.70;;;;;;5032774;28;20436;-75
2021/06/02 08:46:47;;;;;;;10.27;4.67;;;20.80;44.50;;;;;;5036849;28;20437;-75
2021/06/02 08:49:18;;;;;;;10.23;4.93;;;20.80;44.60;;;;;;5040020;28;20476;-76
2021/06/02 08:51:45;;;;;;;7.97;4.17;;;20.80;45.10;;;;;;5037829;28;20467;-76
2021/06/02 08:54:10;;;;;;;8.17;4.40;;;21.00;45.30;;;;;;5035056;28;21034;-76
2021/06/02 08:56:42;;;;;;;9.23;4.33;;;21.20;44.70;;;;;;5033251;28;20422;-76
2021/06/02 08:59:08;;;;;;;5.37;4.20;;;21.30;44.20;;;;;;5043580;28;20190;-76
2021/06/02 09:01:34;;;;;;;6.90;4.30;;;21.40;43.90;;;;;;5046638;28;20434;-76
2021/06/02 09:04:08;;;;;;;7.97;3.80;;;21.30;44.20;;;;;;5046905;28;20201;-76
2021/06/02 09:06:37;;;;;;;8.90;4.77;;;21.30;44.50;;;;;;5037521;28;20426;-76
2021/06/02 09:09:04;;;;;;;6.63;3.67;;;21.40;44.50;;;;;;5030699;28;20984;-77
2021/06/02 09:11:40;;;;;;;6.10;4.60;;;21.60;43.90;;;;;;5029787;28;20447;-76
2021/06/02 09:14:20;;;;;;;6.30;3.83;;;21.70;43.70;;;;;;5031399;28;20453;-75
2021/06/02 09:16:57;;;;;;;7.83;4.43;;;21.80;43.10;;;;;;5030045;28;20485;-76
2021/06/02 09:19:45;;;;;;;6.70;4.20;;;21.90;43.70;;;;;;5030015;28;20998;-75
2021/06/02 09:22:13;;;;;;;7.27;4.10;;;21.90;42.60;;;;;;5028215;28;20440;-75
2021/06/02 09:25:05;;;;;;;9.40;3.63;;;21.80;42.40;;;;;;5029942;28;20496;-76
2021/06/02 09:27:57;;;;;;;10.87;4.13;;;21.90;42.30;;;;;;5022645;28;20431;-77
2021/06/02 09:30:26;;;;;;;5.40;3.97;;;22.00;41.50;;;;;;5031192;28;20423;-76
2021/06/02 09:32:58;;;;;;;7.40;4.23;;;22.10;41.90;;;;;;5030513;28;20565;-75
2021/06/02 09:35:43;;;;;;;5.13;3.77;;;22.30;42.00;;;;;;5031170;28;20941;-77
2021/06/02 09:38:25;;;;;;;5.77;3.30;;;22.40;39.40;;;;;;5031141;28;20918;-76
2021/06/02 09:40:56;;;;;;;6.10;4.00;;;22.60;38.80;;;;;;5028246;28;20493;-76
2021/06/02 09:43:34;;;;;;;7.77;3.03;;;22.70;38.20;;;;;;5030594;28;20410;-76
2021/06/02 09:46:14;;;;;;;4.43;3.23;;;22.90;37.40;;;;;;5023003;28;20456;-76
2021/06/02 09:49:01;;;;;;;5.37;3.60;;;22.80;37.50;;;;;;5029066;28;20470;-75
2021/06/02 09:51:39;;;;;;;4.90;3.57;;;22.80;36.80;;;;;;5029226;28;20439;-75
2021/06/02 09:54:08;;;;;;;4.40;4.00;;;22.90;36.20;;;;;;5030827;28;20423;-75
2021/06/02 09:56:40;;;;;;;5.93;4.20;;;22.80;36.30;;;;;;5030802;28;20424;-75
2021/06/02 09:59:08;;;;;;;3.97;3.30;;;22.90;36.00;;;;;;5032776;28;20472;-75
2021/06/02 10:01:57;;;;;;;5.70;3.47;;;23.00;35.90;;;;;;5039843;28;20531;-77
2021/06/02 10:04:39;;;;;;;6.83;3.67;;;23.20;35.70;;;;;;5040666;28;20912;-76
2021/06/02 10:07:17;;;;;;;4.97;3.30;;;23.30;34.50;;;;;;5032052;28;20425;-76
2021/06/02 10:09:43;;;;;;;6.27;3.70;;;23.50;34.30;;;;;;5029789;28;20559;-77
2021/06/02 10:12:12;;;;;;;4.73;3.37;;;23.60;34.40;;;;;;5030647;28;20449;-78
2021/06/02 10:14:58;;;;;;;4.53;3.53;;;24.10;33.60;;;;;;5031554;28;20431;-76
2021/06/02 10:17:29;;;;;;;6.07;3.53;;;24.30;32.40;;;;;;5029718;28;20527;-76
2021/06/02 10:19:56;;;;;;;4.10;3.50;;;24.60;32.00;;;;;;5029491;28;20432;-77
2021/06/02 10:22:30;;;;;;;8.73;4.10;;;24.70;31.50;;;;;;5028996;28;20828;-76
2021/06/02 10:24:59;;;;;;;4.97;3.70;;;24.70;31.50;;;;;;5030630;28;20420;-77
2021/06/02 10:27:26;;;;;;;6.53;3.60;;;24.30;31.90;;;;;;5032932;28;20494;-79
2021/06/02 10:29:52;;;;;;;5.53;3.70;;;24.10;32.50;;;;;;5032238;28;20455;-78
2021/06/02 10:32:19;;;;;;;4.00;3.50;;;24.20;32.30;;;;;;5029964;28;20493;-76
2021/06/02 10:34:46;;;;;;;7.33;3.50;;;24.00;32.30;;;;;;5030882;28;20424;-75
2021/06/02 10:37:15;;;;;;;6.13;3.60;;;24.10;32.50;;;;;;5029448;28;20794;-76
2021/06/02 10:39:46;;;;;;;5.33;3.27;;;24.50;31.90;;;;;;5030135;28;20509;-75
2021/06/02 10:42:27;;;;;;;7.03;3.50;;;24.80;31.60;;;;;;5031890;28;20441;-76
2021/06/02 10:45:11;;;;;;;6.77;3.70;;;24.90;31.20;;;;;;5033812;28;20503;-75
2021/06/02 10:47:36;;;;;;;8.23;3.70;;;25.10;31.20;;;;;;5034345;28;20423;-77
2021/06/02 10:50:03;;;;;;;5.83;3.60;;;25.40;29.80;;;;;;5034291;28;20473;-75
2021/06/02 10:52:35;;;;;;;5.70;3.70;;;25.50;29.70;;;;;;5032580;28;20203;-76
2021/06/02 10:55:32;;;;;;;6.13;4.03;;;25.20;29.90;;;;;;5033141;28;20422;-75
2021/06/02 10:58:45;;;;;;;3.53;3.20;;;24.90;30.40;;;;;;5034328;28;20464;-76
2021/06/02 11:01:18;;;;;;;5.50;3.90;;;25.10;30.50;;;;;;5037456;28;20477;-75
2021/06/02 11:03:46;;;;;;;4.37;3.60;;;25.50;29.60;;;;;;5037329;28;20419;-75
2021/06/02 11:06:15;;;;;;;8.90;3.93;;;25.50;29.60;;;;;;5042417;28;20452;-76
2021/06/02 11:08:52;;;;;;;7.73;3.80;;;25.00;30.50;;;;;;5038224;28;20475;-76
2021/06/02 11:11:20;;;;;;;7.10;4.27;;;25.10;30.70;;;;;;5029483;28;20843;-76
2021/06/02 11:14:08;;;;;;;6.13;4.50;;;25.80;29.50;;;;;;5033677;28;20419;-76
2021/06/02 11:16:38;;;;;;;8.97;4.07;;;26.30;29.10;;;;;;5034821;28;20420;-77
2021/06/02 11:19:25;;;;;;;6.50;3.77;;;26.40;28.60;;;;;;5039746;28;20423;-76
2021/06/02 11:21:54;;;;;;;6.70;3.87;;;25.90;29.20;;;;;;5036879;28;20441;-76
2021/06/02 11:24:39;;;;;;;4.93;3.60;;;25.90;28.70;;;;;;5036911;28;20852;-76
2021/06/02 11:27:11;;;;;;;9.47;3.97;;;25.50;29.00;;;;;;5032350;28;20437;-76
2021/06/02 11:29:57;;;;;;;11.00;5.20;;;25.90;29.30;;;;;;5034269;28;20468;-76
2021/06/02 11:32:31;;;;;;;7.50;4.00;;;26.50;29.10;;;;;;5020480;28;20491;-76
2021/06/02 11:35:00;;;;;;;6.17;3.77;;;26.70;28.30;;;;;;5028134;28;20779;-74
2021/06/02 11:37:31;;;;;;;5.20;4.10;;;26.50;28.30;;;;;;5033436;28;20522;-76
2021/06/02 11:40:03;;;;;;;5.37;4.10;;;25.90;28.80;;;;;;5031522;28;20574;-76
2021/06/02 11:42:43;;;;;;;4.50;3.50;;;25.80;29.00;;;;;;5031375;28;20550;-76
2021/06/02 11:45:26;;;;;;;7.50;4.10;;;25.80;28.80;;;;;;5032587;28;20465;-76
2021/06/02 11:47:56;;;;;;;4.73;3.50;;;25.40;29.20;;;;;;5030908;28;20462;-76
2021/06/02 11:50:24;;;;;;;7.33;3.87;;;25.70;28.90;;;;;;5031599;28;21038;-75
2021/06/02 11:52:58;;;;;;;5.10;3.70;;;25.80;29.00;;;;;;5030915;28;20435;-77
2021/06/02 11:55:24;;;;;;;6.53;4.27;;;26.10;28.90;;;;;;5031191;28;20418;-76
2021/06/02 11:57:51;;;;;;;5.83;3.83;;;26.10;28.90;;;;;;5032608;28;20423;-76
2021/06/02 12:00:21;;;;;;;6.97;4.10;;;26.50;28.80;;;;;;5033108;28;20412;-76
2021/06/02 12:02:55;;;;;;;6.73;3.90;;;27.00;28.00;;;;;;5031650;28;20466;-76
2021/06/02 12:05:39;;;;;;;7.23;4.00;;;26.70;28.20;;;;;;5033192;28;20414;-75
2021/06/02 12:08:16;;;;;;;5.40;3.87;;;26.00;29.20;;;;;;5024200;28;20559;-76
2021/06/02 12:10:55;;;;;;;8.57;5.50;;;26.30;28.80;;;;;;5030757;28;20464;-76
2021/06/02 12:13:36;;;;;;;6.33;4.07;;;26.30;28.70;;;;;;5032259;28;20438;-76
2021/06/02 12:16:04;;;;;;;5.33;3.53;;;26.50;28.70;;;;;;5032635;28;20506;-75
2021/06/02 12:18:31;;;;;;;6.10;4.33;;;27.10;28.00;;;;;;5032178;28;20460;-75
2021/06/02 12:21:18;;;;;;;6.37;3.77;;;27.00;28.20;;;;;;5022851;28;20522;-77
2021/06/02 12:23:49;;;;;;;3.90;3.23;;;27.00;28.00;;;;;;5031910;28;20447;-77
2021/06/02 12:26:27;;;;;;;5.70;3.50;;;26.70;28.70;;;;;;5030602;28;20431;-76
2021/06/02 12:28:54;;;;;;;5.13;3.20;;;27.50;28.30;;;;;;5031375;28;20609;-77
2021/06/02 12:31:45;;;;;;;5.90;3.83;;;27.90;27.50;;;;;;5032617;28;20440;-79
2021/06/02 12:34:14;;;;;;;6.13;3.73;;;28.00;27.60;;;;;;5018234;28;20509;-75
2021/06/02 12:37:00;;;;;;;5.13;3.53;;;27.60;27.90;;;;;;5034944;28;20421;-77
2021/06/02 12:39:33;;;;;;;4.83;3.57;;;27.30;27.90;;;;;;5038981;28;20415;-76
2021/06/02 12:42:02;;;;;;;4.43;3.43;;;27.60;27.80;;;;;;5032064;28;20451;-77
2021/06/02 12:44:29;;;;;;;4.67;3.30;;;27.50;27.80;;;;;;5040821;28;20427;-77
2021/06/02 12:47:01;;;;;;;6.70;3.80;;;27.30;27.40;;;;;;5041881;28;20430;-76
2021/06/02 12:49:29;;;;;;;4.53;3.50;;;27.90;27.00;;;;;;5046033;28;20980;-76
2021/06/02 12:51:56;;;;;;;4.80;3.57;;;27.70;27.20;;;;;;5044358;28;20433;-76
2021/06/02 12:54:27;;;;;;;3.80;3.33;;;27.50;27.70;;;;;;5048673;28;20420;-75
2021/06/02 12:56:53;;;;;;;7.30;3.40;;;27.60;27.30;;;;;;5035921;28;20933;-75
2021/06/02 12:59:19;;;;;;;4.10;3.10;;;28.20;27.10;;;;;;5031388;28;20922;-76
2021/06/02 13:01:49;;;;;;;6.47;3.90;;;28.90;26.20;;;;;;5031414;28;20436;-76
2021/06/02 13:04:16;;;;;;;4.20;3.10;;;28.80;26.30;;;;;;5035037;28;20405;-75
2021/06/02 13:06:52;;;;;;;4.83;3.40;;;29.30;25.50;;;;;;5035672;28;20428;-75
2021/06/02 13:09:23;;;;;;;6.13;3.57;;;29.10;25.60;;;;;;5025953;28;20486;-77
2021/06/02 13:11:52;;;;;;;5.83;3.60;;;29.10;25.80;;;;;;5029042;28;20459;-74
2021/06/02 13:14:22;;;;;;;7.57;3.10;;;29.50;25.70;;;;;;5030781;28;20427;-77
2021/06/02 13:16:51;;;;;;;4.90;3.17;;;29.70;24.90;;;;;;5032506;28;20506;-74
2021/06/02 13:19:17;;;;;;;6.73;3.63;;;27.60;26.50;;;;;;5032449;28;20416;-76
2021/06/02 13:21:50;;;;;;;4.50;3.33;;;27.60;26.80;;;;;;5031079;28;20968;-75
2021/06/02 13:24:23;;;;;;;5.20;3.03;;;27.90;26.70;;;;;;5031482;28;20327;-75
2021/06/02 13:27:00;;;;;;;4.53;3.63;;;28.10;26.90;;;;;;5035411;28;20455;-78
2021/06/02 13:29:26;;;;;;;10.63;3.17;;;28.30;26.60;;;;;;5038372;28;20481;-75
2021/06/02 13:31:53;;;;;;;4.43;3.00;;;27.80;27.70;;;;;;5037873;28;20451;-78
2021/06/02 13:34:38;;;;;;;4.90;3.13;;;27.40;28.30;;;;;;5038688;28;20654;-74